sensor_id;sensor_type;location;lat;lon;timestamp;temperature;humidity
22706;DHT22;11520;51.198;4.468;2023-04-06T00:02:08;8.80;99.90
22706;DHT22;11520;51.198;4.468;2023-04-06T00:04:33;8.80;99.90
22706;DHT22;11520;51.198;4.468;2023-04-06T00:06:59;8.80;99.90
22706;DHT22;11520;51.198;4.468;2023-04-06T00:09:24;8.80;99.90
22706;DHT22;11520;51.198;4.468;2023-04-06T00:11:50;8.80;99.90
22706;DHT22;11520;51.198;4.468;2023-04-06T00:14:16;8.80;99.90
22706;DHT22;11520;51.198;4.468;2023-04-06T00:16:42;8.80;99.90
22706;DHT22;11520;51.198;4.468;2023-04-06T00:19:08;8.70;99.90
22706;DHT22;11520;51.198;4.468;2023-04-06T00:21:35;8.60;99.90
22706;DHT22;11520;51.198;4.468;2023-04-06T00:24:00;8.60;99.90
22706;DHT22;11520;51.198;4.468;2023-04-06T00:26:26;8.60;99.90
22706;DHT22;11520;51.198;4.468;2023-04-06T00:28:52;8.70;99.90
22706;DHT22;11520;51.198;4.468;2023-04-06T00:31:18;8.70;99.90
22706;DHT22;11520;51.198;4.468;2023-04-06T00:33:43;8.80;99.90
22706;DHT22;11520;51.198;4.468;2023-04-06T00:36:09;8.80;99.90
22706;DHT22;11520;51.198;4.468;2023-04-06T00:38:35;8.70;99.90
22706;DHT22;11520;51.198;4.468;2023-04-06T00:41:03;8.70;99.90
22706;DHT22;11520;51.198;4.468;2023-04-06T00:43:29;8.60;99.90
22706;DHT22;11520;51.198;4.468;2023-04-06T00:45:54;8.60;99.90
22706;DHT22;11520;51.198;4.468;2023-04-06T00:48:21;8.60;99.90
22706;DHT22;11520;51.198;4.468;2023-04-06T00:50:47;8.60;99.90
22706;DHT22;11520;51.198;4.468;2023-04-06T00:53:12;8.50;99.90
22706;DHT22;11520;51.198;4.468;2023-04-06T00:55:38;8.40;99.90
22706;DHT22;11520;51.198;4.468;2023-04-06T00:58:04;8.40;99.90
22706;DHT22;11520;51.198;4.468;2023-04-06T01:00:31;8.30;99.90
22706;DHT22;11520;51.198;4.468;2023-04-06T01:02:57;8.30;99.90
22706;DHT22;11520;51.198;4.468;2023-04-06T01:05:23;8.30;99.90
22706;DHT22;11520;51.198;4.468;2023-04-06T01:07:48;8.20;99.90
22706;DHT22;11520;51.198;4.468;2023-04-06T01:10:26;8.30;99.90
22706;DHT22;11520;51.198;4.468;2023-04-06T01:12:52;8.40;99.90
22706;DHT22;11520;51.198;4.468;2023-04-06T01:15:17;8.40;99.90
22706;DHT22;11520;51.198;4.468;2023-04-06T01:17:43;8.30;99.90
22706;DHT22;11520;51.198;4.468;2023-04-06T01:20:09;8.10;99.90
22706;DHT22;11520;51.198;4.468;2023-04-06T01:22:35;8.10;99.90
22706;DHT22;11520;51.198;4.468;2023-04-06T01:25:02;8.10;99.90
22706;DHT22;11520;51.198;4.468;2023-04-06T01:27:28;8.10;99.90
22706;DHT22;11520;51.198;4.468;2023-04-06T01:29:56;8.10;99.90
22706;DHT22;11520;51.198;4.468;2023-04-06T01:32:21;8.20;99.90
22706;DHT22;11520;51.198;4.468;2023-04-06T01:34:47;8.20;99.90
22706;DHT22;11520;51.198;4.468;2023-04-06T01:37:14;8.30;99.90
22706;DHT22;11520;51.198;4.468;2023-04-06T01:39:40;8.30;99.90
22706;DHT22;11520;51.198;4.468;2023-04-06T01:42:06;8.30;99.90
22706;DHT22;11520;51.198;4.468;2023-04-06T01:44:31;8.30;99.90
22706;DHT22;11520;51.198;4.468;2023-04-06T01:46:57;8.30;99.90
22706;DHT22;11520;51.198;4.468;2023-04-06T01:49:23;8.30;99.90
22706;DHT22;11520;51.198;4.468;2023-04-06T01:51:48;8.20;99.90
22706;DHT22;11520;51.198;4.468;2023-04-06T01:54:14;8.10;99.90
22706;DHT22;11520;51.198;4.468;2023-04-06T01:56:39;8.00;99.90
22706;DHT22;11520;51.198;4.468;2023-04-06T01:59:06;8.00;99.90
22706;DHT22;11520;51.198;4.468;2023-04-06T02:01:32;8.10;99.90
22706;DHT22;11520;51.198;4.468;2023-04-06T02:03:58;8.20;99.90
22706;DHT22;11520;51.198;4.468;2023-04-06T02:06:23;8.20;99.90
22706;DHT22;11520;51.198;4.468;2023-04-06T02:08:50;8.20;99.90
22706;DHT22;11520;51.198;4.468;2023-04-06T02:11:16;8.10;99.90
22706;DHT22;11520;51.198;4.468;2023-04-06T02:13:41;8.10;99.90
22706;DHT22;11520;51.198;4.468;2023-04-06T02:16:07;8.10;99.90
22706;DHT22;11520;51.198;4.468;2023-04-06T02:18:33;8.10;99.90
22706;DHT22;11520;51.198;4.468;2023-04-06T02:21:01;8.10;99.90
22706;DHT22;11520;51.198;4.468;2023-04-06T02:23:28;8.00;99.90
22706;DHT22;11520;51.198;4.468;2023-04-06T02:25:54;8.00;99.90
22706;DHT22;11520;51.198;4.468;2023-04-06T02:28:21;8.10;99.90
22706;DHT22;11520;51.198;4.468;2023-04-06T02:30:47;8.20;99.90
22706;DHT22;11520;51.198;4.468;2023-04-06T02:33:13;8.10;99.90
22706;DHT22;11520;51.198;4.468;2023-04-06T02:35:38;8.20;99.90
22706;DHT22;11520;51.198;4.468;2023-04-06T02:38:04;8.20;99.90
22706;DHT22;11520;51.198;4.468;2023-04-06T02:40:29;8.10;99.90
22706;DHT22;11520;51.198;4.468;2023-04-06T02:42:55;8.10;99.90
22706;DHT22;11520;51.198;4.468;2023-04-06T02:45:21;8.10;99.90
22706;DHT22;11520;51.198;4.468;2023-04-06T02:47:46;8.10;99.90
22706;DHT22;11520;51.198;4.468;2023-04-06T02:50:12;8.10;99.90
22706;DHT22;11520;51.198;4.468;2023-04-06T02:52:37;8.00;99.90
22706;DHT22;11520;51.198;4.468;2023-04-06T02:55:03;8.00;99.90
22706;DHT22;11520;51.198;4.468;2023-04-06T02:57:29;7.90;99.90
22706;DHT22;11520;51.198;4.468;2023-04-06T02:59:55;7.80;99.90
22706;DHT22;11520;51.198;4.468;2023-04-06T03:02:21;7.80;99.90
22706;DHT22;11520;51.198;4.468;2023-04-06T03:04:50;7.90;99.90
22706;DHT22;11520;51.198;4.468;2023-04-06T03:07:16;8.00;99.90
22706;DHT22;11520;51.198;4.468;2023-04-06T03:09:41;8.00;99.90
22706;DHT22;11520;51.198;4.468;2023-04-06T03:12:07;8.10;99.90
22706;DHT22;11520;51.198;4.468;2023-04-06T03:14:34;8.10;99.90
22706;DHT22;11520;51.198;4.468;2023-04-06T03:16:59;8.10;99.90
22706;DHT22;11520;51.198;4.468;2023-04-06T03:19:25;8.10;99.90
22706;DHT22;11520;51.198;4.468;2023-04-06T03:21:51;8.10;99.90
22706;DHT22;11520;51.198;4.468;2023-04-06T03:24:17;8.10;99.90
22706;DHT22;11520;51.198;4.468;2023-04-06T03:26:42;8.10;99.90
22706;DHT22;11520;51.198;4.468;2023-04-06T03:29:08;8.10;99.90
22706;DHT22;11520;51.198;4.468;2023-04-06T03:31:34;8.10;99.90
22706;DHT22;11520;51.198;4.468;2023-04-06T03:33:59;8.10;99.90
22706;DHT22;11520;51.198;4.468;2023-04-06T03:36:25;8.10;99.90
22706;DHT22;11520;51.198;4.468;2023-04-06T03:38:52;8.20;99.90
22706;DHT22;11520;51.198;4.468;2023-04-06T03:41:19;8.10;99.90
22706;DHT22;11520;51.198;4.468;2023-04-06T03:43:45;8.10;99.90
22706;DHT22;11520;51.198;4.468;2023-04-06T03:46:11;8.10;99.90
22706;DHT22;11520;51.198;4.468;2023-04-06T03:48:38;8.10;99.90
22706;DHT22;11520;51.198;4.468;2023-04-06T03:51:03;8.00;99.90
22706;DHT22;11520;51.198;4.468;2023-04-06T03:53:29;8.00;99.90
22706;DHT22;11520;51.198;4.468;2023-04-06T03:55:55;8.00;99.90
22706;DHT22;11520;51.198;4.468;2023-04-06T03:58:21;8.00;99.90
22706;DHT22;11520;51.198;4.468;2023-04-06T04:00:46;8.00;99.90
22706;DHT22;11520;51.198;4.468;2023-04-06T04:03:12;8.10;99.90
22706;DHT22;11520;51.198;4.468;2023-04-06T04:05:37;8.10;99.90
22706;DHT22;11520;51.198;4.468;2023-04-06T04:08:03;8.10;99.90
22706;DHT22;11520;51.198;4.468;2023-04-06T04:10:29;8.10;99.90
22706;DHT22;11520;51.198;4.468;2023-04-06T04:12:55;8.00;99.90
22706;DHT22;11520;51.198;4.468;2023-04-06T04:15:22;7.80;99.90
22706;DHT22;11520;51.198;4.468;2023-04-06T04:17:49;7.90;99.90
22706;DHT22;11520;51.198;4.468;2023-04-06T04:20:17;7.90;99.90
22706;DHT22;11520;51.198;4.468;2023-04-06T04:22:43;8.00;99.90
22706;DHT22;11520;51.198;4.468;2023-04-06T04:25:10;8.00;99.90
22706;DHT22;11520;51.198;4.468;2023-04-06T04:27:36;8.00;99.90
22706;DHT22;11520;51.198;4.468;2023-04-06T04:30:02;8.00;99.90
22706;DHT22;11520;51.198;4.468;2023-04-06T04:32:28;7.80;99.90
22706;DHT22;11520;51.198;4.468;2023-04-06T04:34:54;7.90;99.90
22706;DHT22;11520;51.198;4.468;2023-04-06T04:37:20;7.90;99.90
22706;DHT22;11520;51.198;4.468;2023-04-06T04:39:46;8.00;99.90
22706;DHT22;11520;51.198;4.468;2023-04-06T04:42:12;8.00;99.90
22706;DHT22;11520;51.198;4.468;2023-04-06T04:44:37;8.10;99.90
22706;DHT22;11520;51.198;4.468;2023-04-06T04:47:03;8.10;99.90
22706;DHT22;11520;51.198;4.468;2023-04-06T04:49:29;8.10;99.90
22706;DHT22;11520;51.198;4.468;2023-04-06T04:51:54;8.10;99.90
22706;DHT22;11520;51.198;4.468;2023-04-06T04:54:20;8.10;99.90
22706;DHT22;11520;51.198;4.468;2023-04-06T04:56:46;8.10;99.90
22706;DHT22;11520;51.198;4.468;2023-04-06T04:59:12;8.10;99.90
22706;DHT22;11520;51.198;4.468;2023-04-06T05:01:40;8.10;99.90
22706;DHT22;11520;51.198;4.468;2023-04-06T05:04:06;8.10;99.90
22706;DHT22;11520;51.198;4.468;2023-04-06T05:06:32;8.20;99.90
22706;DHT22;11520;51.198;4.468;2023-04-06T05:08:58;8.20;99.90
22706;DHT22;11520;51.198;4.468;2023-04-06T05:11:23;8.30;99.90
22706;DHT22;11520;51.198;4.468;2023-04-06T05:13:50;8.30;99.90
22706;DHT22;11520;51.198;4.468;2023-04-06T05:16:17;8.20;99.90
22706;DHT22;11520;51.198;4.468;2023-04-06T05:18:43;8.10;99.90
22706;DHT22;11520;51.198;4.468;2023-04-06T05:21:11;8.00;99.90
22706;DHT22;11520;51.198;4.468;2023-04-06T05:23:36;8.00;99.90
22706;DHT22;11520;51.198;4.468;2023-04-06T05:26:02;8.10;99.90
22706;DHT22;11520;51.198;4.468;2023-04-06T05:28:28;8.20;99.90
22706;DHT22;11520;51.198;4.468;2023-04-06T05:30:54;8.20;99.90
22706;DHT22;11520;51.198;4.468;2023-04-06T05:33:19;8.30;99.90
22706;DHT22;11520;51.198;4.468;2023-04-06T05:35:45;8.30;99.90
22706;DHT22;11520;51.198;4.468;2023-04-06T05:38:11;8.40;99.90
22706;DHT22;11520;51.198;4.468;2023-04-06T05:40:37;8.50;99.90
22706;DHT22;11520;51.198;4.468;2023-04-06T05:43:03;8.60;99.90
22706;DHT22;11520;51.198;4.468;2023-04-06T05:45:29;8.60;99.90
22706;DHT22;11520;51.198;4.468;2023-04-06T05:47:55;8.60;99.90
22706;DHT22;11520;51.198;4.468;2023-04-06T05:50:21;8.60;99.90
22706;DHT22;11520;51.198;4.468;2023-04-06T05:52:47;8.50;99.90
22706;DHT22;11520;51.198;4.468;2023-04-06T05:55:13;8.60;99.90
22706;DHT22;11520;51.198;4.468;2023-04-06T05:57:39;8.70;99.90
22706;DHT22;11520;51.198;4.468;2023-04-06T06:00:06;8.90;99.90
22706;DHT22;11520;51.198;4.468;2023-04-06T06:02:34;8.90;99.90
22706;DHT22;11520;51.198;4.468;2023-04-06T06:05:00;8.80;99.90
22706;DHT22;11520;51.198;4.468;2023-04-06T06:07:26;8.90;99.90
22706;DHT22;11520;51.198;4.468;2023-04-06T06:09:52;8.90;99.90
22706;DHT22;11520;51.198;4.468;2023-04-06T06:12:17;8.90;99.90
22706;DHT22;11520;51.198;4.468;2023-04-06T06:14:44;8.90;99.90
22706;DHT22;11520;51.198;4.468;2023-04-06T06:17:12;8.90;99.90
22706;DHT22;11520;51.198;4.468;2023-04-06T06:19:37;9.10;99.90
22706;DHT22;11520;51.198;4.468;2023-04-06T06:22:03;9.20;99.90
22706;DHT22;11520;51.198;4.468;2023-04-06T06:24:31;9.20;99.90
22706;DHT22;11520;51.198;4.468;2023-04-06T06:26:57;9.40;99.90
22706;DHT22;11520;51.198;4.468;2023-04-06T06:29:22;9.60;99.90
22706;DHT22;11520;51.198;4.468;2023-04-06T06:31:49;9.70;99.90
22706;DHT22;11520;51.198;4.468;2023-04-06T06:34:15;9.70;99.90
22706;DHT22;11520;51.198;4.468;2023-04-06T06:36:41;9.60;99.90
22706;DHT22;11520;51.198;4.468;2023-04-06T06:39:07;9.50;99.90
22706;DHT22;11520;51.198;4.468;2023-04-06T06:41:34;9.60;99.90
22706;DHT22;11520;51.198;4.468;2023-04-06T06:44:00;9.70;99.90
22706;DHT22;11520;51.198;4.468;2023-04-06T06:46:26;9.70;99.90
22706;DHT22;11520;51.198;4.468;2023-04-06T06:48:52;9.70;99.90
22706;DHT22;11520;51.198;4.468;2023-04-06T06:51:17;9.80;99.90
22706;DHT22;11520;51.198;4.468;2023-04-06T06:53:43;9.80;99.90
22706;DHT22;11520;51.198;4.468;2023-04-06T06:56:09;9.80;99.90
22706;DHT22;11520;51.198;4.468;2023-04-06T06:58:34;9.70;99.90
22706;DHT22;11520;51.198;4.468;2023-04-06T07:01:00;9.80;99.90
22706;DHT22;11520;51.198;4.468;2023-04-06T07:03:26;9.90;99.90
22706;DHT22;11520;51.198;4.468;2023-04-06T07:05:52;9.90;99.90
22706;DHT22;11520;51.198;4.468;2023-04-06T07:08:22;9.90;99.90
22706;DHT22;11520;51.198;4.468;2023-04-06T07:10:48;10.00;99.90
22706;DHT22;11520;51.198;4.468;2023-04-06T07:13:14;9.90;99.90
22706;DHT22;11520;51.198;4.468;2023-04-06T07:15:47;9.80;99.90
22706;DHT22;11520;51.198;4.468;2023-04-06T07:18:13;9.70;99.90
22706;DHT22;11520;51.198;4.468;2023-04-06T07:20:39;9.60;99.90
22706;DHT22;11520;51.198;4.468;2023-04-06T07:23:05;9.60;99.90
22706;DHT22;11520;51.198;4.468;2023-04-06T07:25:31;9.60;99.90
22706;DHT22;11520;51.198;4.468;2023-04-06T07:27:57;9.50;99.90
22706;DHT22;11520;51.198;4.468;2023-04-06T07:30:23;9.50;99.90
22706;DHT22;11520;51.198;4.468;2023-04-06T07:32:50;9.50;99.90
22706;DHT22;11520;51.198;4.468;2023-04-06T07:35:17;9.60;99.90
22706;DHT22;11520;51.198;4.468;2023-04-06T07:37:42;9.60;99.90
22706;DHT22;11520;51.198;4.468;2023-04-06T07:40:08;9.40;99.90
22706;DHT22;11520;51.198;4.468;2023-04-06T07:42:34;9.40;99.90
22706;DHT22;11520;51.198;4.468;2023-04-06T07:45:01;9.50;99.90
22706;DHT22;11520;51.198;4.468;2023-04-06T07:47:27;9.60;99.90
22706;DHT22;11520;51.198;4.468;2023-04-06T07:49:55;9.60;99.90
22706;DHT22;11520;51.198;4.468;2023-04-06T07:52:23;9.60;99.90
22706;DHT22;11520;51.198;4.468;2023-04-06T07:54:49;9.60;99.90
22706;DHT22;11520;51.198;4.468;2023-04-06T07:57:15;9.70;99.90
22706;DHT22;11520;51.198;4.468;2023-04-06T07:59:41;9.70;99.90
22706;DHT22;11520;51.198;4.468;2023-04-06T08:02:06;9.70;99.90
22706;DHT22;11520;51.198;4.468;2023-04-06T08:04:32;9.70;99.90
22706;DHT22;11520;51.198;4.468;2023-04-06T08:06:58;9.60;99.90
22706;DHT22;11520;51.198;4.468;2023-04-06T08:09:23;9.60;99.90
22706;DHT22;11520;51.198;4.468;2023-04-06T08:11:50;9.50;99.90
22706;DHT22;11520;51.198;4.468;2023-04-06T08:14:16;9.50;99.90
22706;DHT22;11520;51.198;4.468;2023-04-06T08:16:42;9.50;99.90
22706;DHT22;11520;51.198;4.468;2023-04-06T08:19:07;9.30;99.90
22706;DHT22;11520;51.198;4.468;2023-04-06T08:21:40;9.20;99.90
22706;DHT22;11520;51.198;4.468;2023-04-06T08:24:06;9.10;99.90
22706;DHT22;11520;51.198;4.468;2023-04-06T08:26:32;9.00;99.90
22706;DHT22;11520;51.198;4.468;2023-04-06T08:28:57;9.00;99.90
22706;DHT22;11520;51.198;4.468;2023-04-06T08:31:23;9.00;99.90
22706;DHT22;11520;51.198;4.468;2023-04-06T08:33:49;9.00;99.90
22706;DHT22;11520;51.198;4.468;2023-04-06T08:36:15;9.10;99.90
22706;DHT22;11520;51.198;4.468;2023-04-06T08:38:41;9.10;99.90
22706;DHT22;11520;51.198;4.468;2023-04-06T08:41:12;9.10;99.90
22706;DHT22;11520;51.198;4.468;2023-04-06T08:43:58;9.10;99.90
22706;DHT22;11520;51.198;4.468;2023-04-06T08:46:28;9.10;99.90
22706;DHT22;11520;51.198;4.468;2023-04-06T08:49:02;9.20;99.90
22706;DHT22;11520;51.198;4.468;2023-04-06T08:51:29;9.20;99.90
22706;DHT22;11520;51.198;4.468;2023-04-06T08:53:59;9.30;99.90
22706;DHT22;11520;51.198;4.468;2023-04-06T08:56:26;9.40;99.90
22706;DHT22;11520;51.198;4.468;2023-04-06T08:58:53;9.30;99.90
22706;DHT22;11520;51.198;4.468;2023-04-06T09:01:27;9.30;99.90
22706;DHT22;11520;51.198;4.468;2023-04-06T09:03:58;9.30;99.90
22706;DHT22;11520;51.198;4.468;2023-04-06T09:06:26;9.20;99.90
22706;DHT22;11520;51.198;4.468;2023-04-06T09:08:53;9.20;99.90
22706;DHT22;11520;51.198;4.468;2023-04-06T09:11:20;9.20;99.90
22706;DHT22;11520;51.198;4.468;2023-04-06T09:13:47;9.20;99.90
22706;DHT22;11520;51.198;4.468;2023-04-06T09:16:13;9.20;99.90
22706;DHT22;11520;51.198;4.468;2023-04-06T09:18:39;9.20;99.90
22706;DHT22;11520;51.198;4.468;2023-04-06T09:21:06;9.20;99.90
22706;DHT22;11520;51.198;4.468;2023-04-06T09:23:33;9.20;99.90
22706;DHT22;11520;51.198;4.468;2023-04-06T09:26:15;9.30;99.90
22706;DHT22;11520;51.198;4.468;2023-04-06T09:28:52;9.30;99.90
22706;DHT22;11520;51.198;4.468;2023-04-06T09:31:23;9.30;99.90
22706;DHT22;11520;51.198;4.468;2023-04-06T09:33:50;9.30;99.90
22706;DHT22;11520;51.198;4.468;2023-04-06T09:36:15;9.30;99.90
22706;DHT22;11520;51.198;4.468;2023-04-06T09:39:02;9.30;99.90
22706;DHT22;11520;51.198;4.468;2023-04-06T09:41:30;9.30;99.90
22706;DHT22;11520;51.198;4.468;2023-04-06T09:44:05;9.30;99.90
22706;DHT22;11520;51.198;4.468;2023-04-06T09:46:34;9.30;99.90
22706;DHT22;11520;51.198;4.468;2023-04-06T09:49:04;9.30;99.90
22706;DHT22;11520;51.198;4.468;2023-04-06T09:54:03;9.40;99.90
22706;DHT22;11520;51.198;4.468;2023-04-06T09:56:50;9.40;99.90
22706;DHT22;11520;51.198;4.468;2023-04-06T09:59:44;9.40;99.90
22706;DHT22;11520;51.198;4.468;2023-04-06T10:05:00;9.40;99.90
22706;DHT22;11520;51.198;4.468;2023-04-06T10:07:28;9.40;99.90
22706;DHT22;11520;51.198;4.468;2023-04-06T10:09:55;9.30;99.90
22706;DHT22;11520;51.198;4.468;2023-04-06T10:12:21;9.30;99.90
22706;DHT22;11520;51.198;4.468;2023-04-06T10:14:46;9.30;99.90
22706;DHT22;11520;51.198;4.468;2023-04-06T10:17:13;9.30;99.90
22706;DHT22;11520;51.198;4.468;2023-04-06T10:19:53;9.30;99.90
22706;DHT22;11520;51.198;4.468;2023-04-06T10:22:53;9.40;99.90
22706;DHT22;11520;51.198;4.468;2023-04-06T10:25:32;9.40;99.90
22706;DHT22;11520;51.198;4.468;2023-04-06T10:28:08;9.30;99.90
22706;DHT22;11520;51.198;4.468;2023-04-06T10:30:34;9.30;99.90
22706;DHT22;11520;51.198;4.468;2023-04-06T10:33:01;9.40;99.90
22706;DHT22;11520;51.198;4.468;2023-04-06T10:35:37;9.30;99.90
22706;DHT22;11520;51.198;4.468;2023-04-06T10:38:06;9.40;99.90
22706;DHT22;11520;51.198;4.468;2023-04-06T10:40:35;9.40;99.90
22706;DHT22;11520;51.198;4.468;2023-04-06T10:43:32;9.40;99.90
22706;DHT22;11520;51.198;4.468;2023-04-06T10:46:00;9.40;99.90
22706;DHT22;11520;51.198;4.468;2023-04-06T10:48:43;9.40;99.90
22706;DHT22;11520;51.198;4.468;2023-04-06T10:51:16;9.50;99.90
22706;DHT22;11520;51.198;4.468;2023-04-06T10:53:44;9.40;99.90
22706;DHT22;11520;51.198;4.468;2023-04-06T10:56:20;9.40;99.90
22706;DHT22;11520;51.198;4.468;2023-04-06T10:58:54;9.30;99.90
22706;DHT22;11520;51.198;4.468;2023-04-06T11:01:24;9.30;99.90
22706;DHT22;11520;51.198;4.468;2023-04-06T11:03:53;9.30;99.90
22706;DHT22;11520;51.198;4.468;2023-04-06T11:06:23;9.10;99.90
22706;DHT22;11520;51.198;4.468;2023-04-06T11:08:50;9.20;99.90
22706;DHT22;11520;51.198;4.468;2023-04-06T11:11:18;9.20;99.90
22706;DHT22;11520;51.198;4.468;2023-04-06T11:13:56;9.10;99.90
22706;DHT22;11520;51.198;4.468;2023-04-06T11:16:23;9.00;99.90
22706;DHT22;11520;51.198;4.468;2023-04-06T11:18:58;9.10;99.90
22706;DHT22;11520;51.198;4.468;2023-04-06T11:21:48;9.10;99.90
22706;DHT22;11520;51.198;4.468;2023-04-06T11:24:16;9.00;99.90
22706;DHT22;11520;51.198;4.468;2023-04-06T11:26:44;9.00;99.90
22706;DHT22;11520;51.198;4.468;2023-04-06T11:29:28;9.10;99.90
22706;DHT22;11520;51.198;4.468;2023-04-06T11:31:59;9.00;99.90
22706;DHT22;11520;51.198;4.468;2023-04-06T11:34:25;9.00;99.90
22706;DHT22;11520;51.198;4.468;2023-04-06T11:36:58;9.00;99.90
22706;DHT22;11520;51.198;4.468;2023-04-06T11:39:26;9.00;99.90
22706;DHT22;11520;51.198;4.468;2023-04-06T11:41:58;9.00;99.90
22706;DHT22;11520;51.198;4.468;2023-04-06T11:44:43;9.00;99.90
22706;DHT22;11520;51.198;4.468;2023-04-06T11:47:12;9.10;99.90
22706;DHT22;11520;51.198;4.468;2023-04-06T11:49:40;9.00;99.90
22706;DHT22;11520;51.198;4.468;2023-04-06T11:54:45;9.10;99.90
22706;DHT22;11520;51.198;4.468;2023-04-06T11:57:11;9.00;99.90
22706;DHT22;11520;51.198;4.468;2023-04-06T11:59:36;9.10;99.90
22706;DHT22;11520;51.198;4.468;2023-04-06T12:02:04;9.10;99.90
22706;DHT22;11520;51.198;4.468;2023-04-06T12:04:30;9.10;99.90
22706;DHT22;11520;51.198;4.468;2023-04-06T12:06:55;9.00;99.90
22706;DHT22;11520;51.198;4.468;2023-04-06T12:09:21;9.10;99.90
22706;DHT22;11520;51.198;4.468;2023-04-06T12:11:47;9.10;99.90
22706;DHT22;11520;51.198;4.468;2023-04-06T12:14:13;9.10;99.90
22706;DHT22;11520;51.198;4.468;2023-04-06T12:16:39;9.10;99.90
22706;DHT22;11520;51.198;4.468;2023-04-06T12:19:05;9.30;99.90
22706;DHT22;11520;51.198;4.468;2023-04-06T12:21:31;9.20;99.90
22706;DHT22;11520;51.198;4.468;2023-04-06T12:23:58;9.20;99.90
22706;DHT22;11520;51.198;4.468;2023-04-06T12:26:24;9.30;99.90
22706;DHT22;11520;51.198;4.468;2023-04-06T12:28:50;9.30;99.90
22706;DHT22;11520;51.198;4.468;2023-04-06T12:31:20;9.40;99.90
22706;DHT22;11520;51.198;4.468;2023-04-06T12:33:50;9.50;99.90
22706;DHT22;11520;51.198;4.468;2023-04-06T12:36:18;9.50;99.90
22706;DHT22;11520;51.198;4.468;2023-04-06T12:38:48;9.60;99.90
22706;DHT22;11520;51.198;4.468;2023-04-06T12:41:15;9.60;99.90
22706;DHT22;11520;51.198;4.468;2023-04-06T12:43:44;9.60;99.90
22706;DHT22;11520;51.198;4.468;2023-04-06T12:46:10;9.50;99.90
22706;DHT22;11520;51.198;4.468;2023-04-06T12:48:36;9.60;99.90
22706;DHT22;11520;51.198;4.468;2023-04-06T12:51:03;9.60;99.90
22706;DHT22;11520;51.198;4.468;2023-04-06T12:53:30;9.60;99.90
22706;DHT22;11520;51.198;4.468;2023-04-06T12:55:56;9.70;99.90
22706;DHT22;11520;51.198;4.468;2023-04-06T12:58:23;9.60;99.90
22706;DHT22;11520;51.198;4.468;2023-04-06T13:00:49;9.60;99.90
22706;DHT22;11520;51.198;4.468;2023-04-06T13:03:18;9.60;99.90
22706;DHT22;11520;51.198;4.468;2023-04-06T13:05:47;9.50;99.90
22706;DHT22;11520;51.198;4.468;2023-04-06T13:08:14;9.50;99.90
22706;DHT22;11520;51.198;4.468;2023-04-06T13:10:51;9.50;99.90
22706;DHT22;11520;51.198;4.468;2023-04-06T13:13:26;9.50;99.90
22706;DHT22;11520;51.198;4.468;2023-04-06T13:16:02;9.50;99.90
22706;DHT22;11520;51.198;4.468;2023-04-06T13:18:29;9.50;99.90
22706;DHT22;11520;51.198;4.468;2023-04-06T13:20:56;9.60;99.90
22706;DHT22;11520;51.198;4.468;2023-04-06T13:23:23;9.60;99.90
22706;DHT22;11520;51.198;4.468;2023-04-06T13:25:59;9.60;99.90
22706;DHT22;11520;51.198;4.468;2023-04-06T13:28:27;9.60;99.90
22706;DHT22;11520;51.198;4.468;2023-04-06T13:30:53;9.50;99.90
22706;DHT22;11520;51.198;4.468;2023-04-06T13:33:19;9.60;99.90
22706;DHT22;11520;51.198;4.468;2023-04-06T13:35:45;9.60;99.90
22706;DHT22;11520;51.198;4.468;2023-04-06T13:38:12;9.60;99.90
22706;DHT22;11520;51.198;4.468;2023-04-06T13:40:41;9.60;99.90
22706;DHT22;11520;51.198;4.468;2023-04-06T13:43:07;9.60;99.90
22706;DHT22;11520;51.198;4.468;2023-04-06T13:45:33;9.60;99.90
22706;DHT22;11520;51.198;4.468;2023-04-06T13:47:59;9.70;99.90
22706;DHT22;11520;51.198;4.468;2023-04-06T13:50:30;9.70;99.90
22706;DHT22;11520;51.198;4.468;2023-04-06T13:52:56;9.70;99.90
22706;DHT22;11520;51.198;4.468;2023-04-06T13:55:22;9.60;99.90
22706;DHT22;11520;51.198;4.468;2023-04-06T13:57:50;9.70;99.90
22706;DHT22;11520;51.198;4.468;2023-04-06T14:00:16;9.60;99.90
22706;DHT22;11520;51.198;4.468;2023-04-06T14:02:42;9.60;99.90
22706;DHT22;11520;51.198;4.468;2023-04-06T14:05:08;9.70;99.90
22706;DHT22;11520;51.198;4.468;2023-04-06T14:07:34;9.70;99.90
22706;DHT22;11520;51.198;4.468;2023-04-06T14:09:59;9.60;99.90
22706;DHT22;11520;51.198;4.468;2023-04-06T14:12:25;9.70;99.90
22706;DHT22;11520;51.198;4.468;2023-04-06T14:14:52;9.60;99.90
22706;DHT22;11520;51.198;4.468;2023-04-06T14:17:17;9.60;99.90
22706;DHT22;11520;51.198;4.468;2023-04-06T14:19:43;9.70;99.90
22706;DHT22;11520;51.198;4.468;2023-04-06T14:22:09;9.70;99.90
22706;DHT22;11520;51.198;4.468;2023-04-06T14:24:35;9.70;99.90
22706;DHT22;11520;51.198;4.468;2023-04-06T14:27:02;9.70;99.90
22706;DHT22;11520;51.198;4.468;2023-04-06T14:29:28;9.70;99.90
22706;DHT22;11520;51.198;4.468;2023-04-06T14:31:55;9.70;99.90
22706;DHT22;11520;51.198;4.468;2023-04-06T14:34:28;9.70;99.90
22706;DHT22;11520;51.198;4.468;2023-04-06T14:36:55;9.70;99.90
22706;DHT22;11520;51.198;4.468;2023-04-06T14:39:21;9.70;99.90
22706;DHT22;11520;51.198;4.468;2023-04-06T14:41:49;9.80;99.90
22706;DHT22;11520;51.198;4.468;2023-04-06T14:44:15;9.80;99.90
22706;DHT22;11520;51.198;4.468;2023-04-06T14:46:41;9.90;99.90
22706;DHT22;11520;51.198;4.468;2023-04-06T14:49:07;9.90;99.90
22706;DHT22;11520;51.198;4.468;2023-04-06T14:51:34;9.90;99.90
22706;DHT22;11520;51.198;4.468;2023-04-06T14:54:01;9.80;99.90
22706;DHT22;11520;51.198;4.468;2023-04-06T14:56:28;9.80;99.90
22706;DHT22;11520;51.198;4.468;2023-04-06T14:58:57;9.90;99.90
22706;DHT22;11520;51.198;4.468;2023-04-06T15:01:23;9.80;99.90
22706;DHT22;11520;51.198;4.468;2023-04-06T15:03:49;9.90;99.90
22706;DHT22;11520;51.198;4.468;2023-04-06T15:06:15;9.90;99.90
22706;DHT22;11520;51.198;4.468;2023-04-06T15:08:44;9.90;99.90
22706;DHT22;11520;51.198;4.468;2023-04-06T15:11:11;10.00;99.90
22706;DHT22;11520;51.198;4.468;2023-04-06T15:13:37;9.90;99.90
22706;DHT22;11520;51.198;4.468;2023-04-06T15:16:04;9.90;99.90
22706;DHT22;11520;51.198;4.468;2023-04-06T15:18:29;9.90;99.90
22706;DHT22;11520;51.198;4.468;2023-04-06T15:20:55;9.90;99.90
22706;DHT22;11520;51.198;4.468;2023-04-06T15:23:22;9.90;99.90
22706;DHT22;11520;51.198;4.468;2023-04-06T15:25:48;10.00;99.90
22706;DHT22;11520;51.198;4.468;2023-04-06T15:28:15;9.90;99.90
22706;DHT22;11520;51.198;4.468;2023-04-06T15:30:42;10.00;99.90
22706;DHT22;11520;51.198;4.468;2023-04-06T15:33:08;10.00;99.90
22706;DHT22;11520;51.198;4.468;2023-04-06T15:35:34;10.10;99.90
22706;DHT22;11520;51.198;4.468;2023-04-06T15:38:04;10.10;99.90
22706;DHT22;11520;51.198;4.468;2023-04-06T15:40:30;10.20;99.90
22706;DHT22;11520;51.198;4.468;2023-04-06T15:42:56;10.20;99.90
22706;DHT22;11520;51.198;4.468;2023-04-06T15:45:21;10.40;99.90
22706;DHT22;11520;51.198;4.468;2023-04-06T15:47:47;10.50;99.90
22706;DHT22;11520;51.198;4.468;2023-04-06T15:50:13;10.50;99.90
22706;DHT22;11520;51.198;4.468;2023-04-06T15:52:39;10.60;99.90
22706;DHT22;11520;51.198;4.468;2023-04-06T15:55:06;10.70;99.90